Terminal Aerodrome Forecast
Issued by NWS Wichita, KS

Home | Current Version | Previous Version | Text Only | Print | Product List | Glossary On
Versions: 1 2 3 4 5 6 7 8 9 10 11 12 13 14 15 16
000
FTUS43 KICT 261735
TAFICT
TAF
KICT 261735Z 2618/2718 03011KT P6SM SKC
     FM270100 06006KT P6SM SCT200
     FM271000 11007KT 6SM BR SCT070
     FM271500 11007KT P6SM SCT020 BKN035
     FM271700 15006KT P6SM BKN035=

USA.gov is the U.S. government's official web portal to all federal, state and local government web resources and services.